Airport View

Enter AWOS ICAO identifier for current METAR.

ex. KFNL

KEHO 112315Z AUTO 00000KT 10SM CLR 05/M06 A3048 RMK AO2 T00471060

11 Dec 2019 23:13

Frequency: 118.425

Phone: 704-487-0100

Other Area AWOS: KFQD - KAKH - KIPJ - KSPA

TAF AMD KHKY 111944Z 1120/1218 VRB05KT P6SM FEW250 FM120000 VRB03KT P6SM SKC FM121500 07005KT P6SM FEW250